Arbalist — J8B3636 — position and weather

sailwx.info

Track history (hours):
 
Tides and Currents Weather Stations Pressure Air Temp Water Temp Dewpoint Dewpoint Depression Visibility Wind Speed Wind Dir Waves Ship Positions

Arbalist

Last reported at 2016-Jan-22 08:08 UTC. Time now 2016-Feb-08 01:59 UTC.
Position N 37°58' E 023°33'.
Warning: this ship's position is 16 days out of date.

Length 115 m; draft 4.5 m.

Type: Cargo ship. MMSI: 37579300.

Date/timePositionNaut miles runAvg speedWind from/ knotsBaromVisibWave heightAir tempDewpointWater temp
2016-Jan-22 08:08N 37°58' E 023°33'2 2.8
2016-Jan-22 07:34N 37°56' E 023°35'1 1.2
2016-Jan-22 06:29N 37°55' E 023°34'0 0.1
2016-Jan-22 05:31N 37°55' E 023°34'0 0.0
2016-Jan-22 04:28N 37°55' E 023°34'0 0.0
2016-Jan-22 03:31N 37°55' E 023°34'0 0.0
2016-Jan-22 02:31N 37°55' E 023°34'0 0.1
2016-Jan-22 01:31N 37°55' E 023°34'0 0.1
2016-Jan-22 00:31N 37°55' E 023°34'0 0.1
2016-Jan-21 23:31N 37°55' E 023°34'0 0.0
2016-Jan-21 22:31N 37°55' E 023°34'0 0.0
2016-Jan-21 21:31N 37°55' E 023°34'0 0.0
2016-Jan-21 20:31N 37°55' E 023°34'0 0.0
2016-Jan-21 19:33N 37°55' E 023°34'0 0.0
2016-Jan-21 18:33N 37°55' E 023°34'0 0.1
2016-Jan-21 17:33N 37°55' E 023°34'0 0.0
2016-Jan-21 16:30N 37°55' E 023°34'0 0.1
2016-Jan-21 15:30N 37°55' E 023°34'0 0.0
2016-Jan-21 14:33N 37°55' E 023°34'0 0.0
2016-Jan-21 13:33N 37°55' E 023°34'0 0.0
2016-Jan-21 12:33N 37°55' E 023°34'0 0.0
2016-Jan-21 11:33N 37°55' E 023°34'0 0.1
2016-Jan-21 10:33N 37°55' E 023°34'0 0.0
2016-Jan-21 09:32N 37°55' E 023°34'0 0.0
2016-Jan-21 08:32N 37°55' E 023°34'0 0.0
2016-Jan-21 07:32N 37°55' E 023°34'0 0.0
2016-Jan-21 06:29N 37°55' E 023°34'0 0.1
2016-Jan-21 05:32N 37°55' E 023°34'0 0.1
2016-Jan-21 04:32N 37°55' E 023°34'0 0.0
2016-Jan-21 03:32N 37°55' E 023°34'0 0.0
2016-Jan-21 02:32N 37°55' E 023°34'0 0.0
2016-Jan-21 01:32N 37°55' E 023°34'0 0.0
2016-Jan-21 00:32N 37°55' E 023°34'0 0.0
2016-Jan-20 23:29N 37°55' E 023°34'0 0.0
2016-Jan-20 22:31N 37°55' E 023°34'0 0.0
2016-Jan-20 21:31N 37°55' E 023°34'0 0.0
2016-Jan-20 20:31N 37°55' E 023°34'0 0.0
2016-Jan-20 19:31N 37°55' E 023°34'0 0.1
2016-Jan-20 18:31N 37°55' E 023°34'0 0.0
2016-Jan-20 17:31N 37°55' E 023°34'0 0.0
2016-Jan-20 16:31N 37°55' E 023°34'0 0.0
2016-Jan-20 15:31N 37°55' E 023°34'0 0.0
2016-Jan-20 14:31N 37°55' E 023°34'0 0.0
2016-Jan-20 13:31N 37°55' E 023°34'0 0.0
2016-Jan-20 12:31N 37°55' E 023°34'0 0.1
2016-Jan-20 11:33N 37°55' E 023°34'1 0.5
2016-Jan-20 10:32N 37°55' E 023°34'0 0.1
2016-Jan-20 09:32N 37°55' E 023°34'0 0.1
2016-Jan-20 08:32N 37°55' E 023°34'0 0.0
2016-Jan-20 07:32N 37°55' E 023°34'0 0.1
2016-Jan-20 06:31N 37°55' E 023°34'0 0.0
2016-Jan-20 05:31N 37°55' E 023°34'0 0.1
2016-Jan-20 04:31N 37°55' E 023°34'0 0.0
2016-Jan-20 03:31N 37°55' E 023°34'0 0.0
2016-Jan-20 02:31N 37°55' E 023°34'0 0.1
2016-Jan-20 01:31N 37°55' E 023°34'0 0.0
2016-Jan-20 00:31N 37°55' E 023°34'0 0.1
2016-Jan-19 23:31N 37°55' E 023°34'0 0.0
2016-Jan-19 22:31N 37°55' E 023°34'0 0.0
2016-Jan-19 21:31N 37°55' E 023°34'0 0.0
2016-Jan-19 20:34N 37°55' E 023°34'0 0.0
2016-Jan-19 19:33N 37°55' E 023°34'1 1.1
2016-Jan-19 18:34N 37°54' E 023°35'8 8.4
2016-Jan-19 17:34N 37°47' E 023°41'11 9.7
2016-Jan-19 16:28N 37°39' E 023°49'304 8.7
2016-Jan-18 05:22N 40°54' E 028°50'911.1
2016-Jan-18 04:33N 40°59' E 028°59'  
Track history (hours):
 
Tides and Currents Weather Stations Pressure Air Temp Water Temp Dewpoint Dewpoint Depression Visibility Wind Speed Wind Dir Waves Ship Positions

Arbalist

Last reported at 2016-Jan-22 08:08 UTC. Time now 2016-Feb-08 01:59 UTC.
Position N 37°58' E 023°33'.
Warning: this ship's position is 16 days out of date.

Length 115 m; draft 4.5 m.

Type: Cargo ship. MMSI: 37579300.

Date/timePositionNaut miles runAvg speedWind from/ knotsBaromVisibWave heightAir tempDewpointWater temp
2016-Jan-22 08:08N 37°58' E 023°33'2 2.8
2016-Jan-22 07:34N 37°56' E 023°35'1 1.2
2016-Jan-22 06:29N 37°55' E 023°34'0 0.1
2016-Jan-22 05:31N 37°55' E 023°34'0 0.0
2016-Jan-22 04:28N 37°55' E 023°34'0 0.0
2016-Jan-22 03:31N 37°55' E 023°34'0 0.0
2016-Jan-22 02:31N 37°55' E 023°34'0 0.1
2016-Jan-22 01:31N 37°55' E 023°34'0 0.1
2016-Jan-22 00:31N 37°55' E 023°34'0 0.1
2016-Jan-21 23:31N 37°55' E 023°34'0 0.0
2016-Jan-21 22:31N 37°55' E 023°34'0 0.0
2016-Jan-21 21:31N 37°55' E 023°34'0 0.0
2016-Jan-21 20:31N 37°55' E 023°34'0 0.0
2016-Jan-21 19:33N 37°55' E 023°34'0 0.0
2016-Jan-21 18:33N 37°55' E 023°34'0 0.1
2016-Jan-21 17:33N 37°55' E 023°34'0 0.0
2016-Jan-21 16:30N 37°55' E 023°34'0 0.1
2016-Jan-21 15:30N 37°55' E 023°34'0 0.0
2016-Jan-21 14:33N 37°55' E 023°34'0 0.0
2016-Jan-21 13:33N 37°55' E 023°34'0 0.0
2016-Jan-21 12:33N 37°55' E 023°34'0 0.0
2016-Jan-21 11:33N 37°55' E 023°34'0 0.1
2016-Jan-21 10:33N 37°55' E 023°34'0 0.0
2016-Jan-21 09:32N 37°55' E 023°34'0 0.0
2016-Jan-21 08:32N 37°55' E 023°34'0 0.0
2016-Jan-21 07:32N 37°55' E 023°34'0 0.0
2016-Jan-21 06:29N 37°55' E 023°34'0 0.1
2016-Jan-21 05:32N 37°55' E 023°34'0 0.1
2016-Jan-21 04:32N 37°55' E 023°34'0 0.0
2016-Jan-21 03:32N 37°55' E 023°34'0 0.0
2016-Jan-21 02:32N 37°55' E 023°34'0 0.0
2016-Jan-21 01:32N 37°55' E 023°34'0 0.0
2016-Jan-21 00:32N 37°55' E 023°34'0 0.0
2016-Jan-20 23:29N 37°55' E 023°34'0 0.0
2016-Jan-20 22:31N 37°55' E 023°34'0 0.0
2016-Jan-20 21:31N 37°55' E 023°34'0 0.0
2016-Jan-20 20:31N 37°55' E 023°34'0 0.0
2016-Jan-20 19:31N 37°55' E 023°34'0 0.1
2016-Jan-20 18:31N 37°55' E 023°34'0 0.0
2016-Jan-20 17:31N 37°55' E 023°34'0 0.0
2016-Jan-20 16:31N 37°55' E 023°34'0 0.0
2016-Jan-20 15:31N 37°55' E 023°34'0 0.0
2016-Jan-20 14:31N 37°55' E 023°34'0 0.0
2016-Jan-20 13:31N 37°55' E 023°34'0 0.0
2016-Jan-20 12:31N 37°55' E 023°34'0 0.1
2016-Jan-20 11:33N 37°55' E 023°34'1 0.5
2016-Jan-20 10:32N 37°55' E 023°34'0 0.1
2016-Jan-20 09:32N 37°55' E 023°34'0 0.1
2016-Jan-20 08:32N 37°55' E 023°34'0 0.0
2016-Jan-20 07:32N 37°55' E 023°34'0 0.1
2016-Jan-20 06:31N 37°55' E 023°34'0 0.0
2016-Jan-20 05:31N 37°55' E 023°34'0 0.1
2016-Jan-20 04:31N 37°55' E 023°34'0 0.0
2016-Jan-20 03:31N 37°55' E 023°34'0 0.0
2016-Jan-20 02:31N 37°55' E 023°34'0 0.1
2016-Jan-20 01:31N 37°55' E 023°34'0 0.0
2016-Jan-20 00:31N 37°55' E 023°34'0 0.1
2016-Jan-19 23:31N 37°55' E 023°34'0 0.0
2016-Jan-19 22:31N 37°55' E 023°34'0 0.0
2016-Jan-19 21:31N 37°55' E 023°34'0 0.0
2016-Jan-19 20:34N 37°55' E 023°34'0 0.0
2016-Jan-19 19:33N 37°55' E 023°34'1 1.1
2016-Jan-19 18:34N 37°54' E 023°35'8 8.4
2016-Jan-19 17:34N 37°47' E 023°41'11 9.7
2016-Jan-19 16:28N 37°39' E 023°49'304 8.7
2016-Jan-18 05:22N 40°54' E 028°50'911.1
2016-Jan-18 04:33N 40°59' E 028°59'  

Dump ship's entire track history